Aledo, Texas
Current Conditions -  °F | °C
As of 10:52 PM on Friday 28 Nov 2014 (Local Time) from KNFW Reporting Station
Few Clouds Few Clouds  
Wind Chill: 61°   Ceiling: Unl
Heat Index: 61°   Visibility: 10mi
Dew Point: 44°   Wind: 15mph
Humidity: 54%   Direction: 190°S
Pressure: 30.03"   Gusts: 22mph
Location:  32.7°N, 97.6°W
Report Text: KNFW 290452Z 19013G19KT 10SM FEW250 16/07 A3003 RMK AO2 SLP151 T01610067
Loading
Personal Weather Stations






























Interactive Weather Map New forecast layout! Learn more

10-Day Weather Forecast

Advertisements
Track Severe Weather on mobile